Etusivu
METAR-TAF:

METAR-TAF

Lentoasemat :

Clemson, Etelä-Carolina, Yhdysvallat

Leveyspiiri: 34-40-20N, Pituuspiiri: 082-52-53W, korkeus merenpinnasta: 272 m

Tämänhetkinen sää

Tämä raportti tehtiin 1 tunti ja 1 minuuttia sitten, kello 22.54 UTC
Tuuli 8 kn lännestä/lounaasta
Lämpötila 11°C
Kosteus 76%
Ilmanpaine 1011 hPa
Näkyvyys: 16.1 km
selkeää

METAR: KCEU 212254Z AUTO 25008KT 10SM CLR 11/07 A2985 RMK AO2 SLP107 T01060067

Aika: 18:55 (23:55 UTC)


TAF: puuttuu

Säähavainnot ja -ennusteet yli 4000 lentoasemalta (METAR- ja TAF-raportit).

Käytössä olevat sääasemat on merkitty karttaan keltaisilla ja punaisilla pisteillä.

Aseta hiiri pisteen päälle nähdäksesi sääaseman nimen.

Klikkaa sitten nähdäksesi säähavainnot ja -ennusteet.

Kartan vaihtaminen: klikkaa mustalla rastilla varustettuja vihreitä pisteitä, niin voit zoomata sisään; viivalla varustettua vihreää pistettä, niin voit zoomata ulos tai vihreitä nuolia, niin pääset viereisille kartoille.


METAR-TAF: